TimeEDT,TemperatureF,Dew PointF,Humidity,Sea Level PressureIn,VisibilityMPH,Wind Direction,Wind SpeedMPH,Gust SpeedMPH,PrecipitationIn,Events,Conditions,WindDirDegrees,DateUTC
12:54 AM,33.1,28.0,82,30.14,10.0,WSW,11.5,-,N/A,,Overcast,250,2013-03-15 04:54:00
1:54 AM,32.0,28.9,88,30.14,10.0,WSW,8.1,-,N/A,,Overcast,240,2013-03-15 05:54:00
2:14 AM,32.0,28.4,87,30.10,10.0,WSW,6.9,-,N/A,,Mostly Cloudy,240,2013-03-15 06:14:00
2:24 AM,32.0,30.2,93,30.10,10.0,WSW,8.1,-,N/A,,Overcast,240,2013-03-15 06:24:00
2:54 AM,32.0,30.0,92,30.11,8.0,WSW,8.1,-,N/A,,Overcast,240,2013-03-15 06:54:00
3:54 AM,32.0,30.9,96,30.09,6.0,WSW,8.1,-,N/A,,Overcast,240,2013-03-15 07:54:00
4:16 AM,32.0,30.2,93,30.05,6.0,SW,6.9,-,N/A,,Overcast,230,2013-03-15 08:16:00
4:54 AM,30.9,30.0,96,30.06,5.0,SW,8.1,-,N/A,,Overcast,230,2013-03-15 08:54:00
5:54 AM,30.0,28.9,96,30.04,4.0,SW,6.9,-,N/A,,Overcast,220,2013-03-15 09:54:00
6:54 AM,28.9,28.9,100,30.02,3.0,SW,6.9,-,N/A,,Mostly Cloudy,220,2013-03-15 10:54:00
7:38 AM,30.2,28.4,93,29.98,2.5,SW,9.2,-,N/A,,Mostly Cloudy,220,2013-03-15 11:38:00
7:54 AM,30.0,28.9,96,30.00,2.5,SW,9.2,-,N/A,,Mostly Cloudy,230,2013-03-15 11:54:00
8:54 AM,30.9,30.0,96,30.01,2.5,WSW,8.1,-,N/A,,Mostly Cloudy,240,2013-03-15 12:54:00
9:36 AM,32.0,30.2,93,29.98,3.0,SW,8.1,-,N/A,,Mostly Cloudy,230,2013-03-15 13:36:00
9:54 AM,33.1,30.9,92,29.99,3.0,SW,9.2,-,N/A,,Mostly Cloudy,230,2013-03-15 13:54:00
10:54 AM,36.0,32.0,86,29.98,5.0,WSW,9.2,-,N/A,,Mostly Cloudy,240,2013-03-15 14:54:00
11:54 AM,39.0,32.0,76,29.96,9.0,WSW,10.4,-,N/A,,Mostly Cloudy,250,2013-03-15 15:54:00
12:54 PM,41.0,34.0,76,29.96,9.0,WSW,9.2,-,N/A,,Mostly Cloudy,250,2013-03-15 16:54:00
1:54 PM,43.0,35.1,74,29.93,9.0,SW,6.9,-,N/A,,Mostly Cloudy,230,2013-03-15 17:54:00
2:54 PM,45.0,36.0,71,29.91,8.0,SW,9.2,-,N/A,,Mostly Cloudy,220,2013-03-15 18:54:00
3:54 PM,46.0,37.0,71,29.89,8.0,West,9.2,-,N/A,,Overcast,260,2013-03-15 19:54:00
4:54 PM,46.0,37.0,71,29.89,7.0,West,12.7,-,N/A,,Overcast,270,2013-03-15 20:54:00
5:54 PM,45.0,39.0,80,29.88,5.0,West,5.8,-,0.00,Rain,Light Rain,260,2013-03-15 21:54:00
6:54 PM,44.6,39.2,81,29.86,3.0,WSW,5.8,-,N/A,Rain,Light Rain,250,2013-03-15 22:54:00
7:31 PM,42.8,41.0,93,29.85,2.5,Calm,Calm,-,0.02,Rain,Rain,0,2013-03-15 23:31:00
7:54 PM,42.1,41.0,96,29.88,2.0,SW,4.6,-,0.05,Rain,Rain,230,2013-03-15 23:54:00
8:38 PM,42.8,41.0,93,29.86,5.0,Calm,Calm,-,0.03,Rain,Light Rain,0,2013-03-16 00:38:00
8:54 PM,41.0,41.0,100,29.87,3.0,Calm,Calm,-,0.04,Rain,Light Rain,0,2013-03-16 00:54:00
9:54 PM,41.0,41.0,100,29.86,2.5,South,3.5,-,0.06,Rain,Light Rain,170,2013-03-16 01:54:00
10:54 PM,41.0,41.0,100,29.81,2.5,SSE,9.2,-,0.02,Rain,Light Rain,150,2013-03-16 02:54:00
11:05 PM,41.0,41.0,100,29.78,4.0,SSE,9.2,-,0.00,Rain,Light Rain,150,2013-03-16 03:05:00
11:54 PM,41.0,39.9,96,29.81,5.0,SSE,3.5,-,0.00,,Overcast,150,2013-03-16 03:54:00